createdAt,value
2023-03-04T00:00:56.070Z,2.53
2023-03-04T00:03:57.640Z,2.42
2023-03-04T00:06:59.159Z,2.30
2023-03-04T00:10:00.708Z,2.58
2023-03-04T00:13:02.230Z,2.35
2023-03-04T00:16:03.908Z,2.40
2023-03-04T00:19:05.492Z,2.65
2023-03-04T00:22:07.042Z,1.85
2023-03-04T00:25:08.771Z,2.72
2023-03-04T00:28:10.400Z,3.35
2023-03-04T00:31:12.007Z,3.10
2023-03-04T00:34:13.464Z,3.28
2023-03-04T00:37:15.180Z,3.05
2023-03-04T00:40:17.093Z,3.17
2023-03-04T00:43:18.693Z,3.20
2023-03-04T00:46:20.206Z,3.25
2023-03-04T00:49:21.997Z,3.17
2023-03-04T00:52:23.516Z,2.90
2023-03-04T00:55:25.014Z,2.80
2023-03-04T00:58:26.643Z,2.70
2023-03-04T01:01:28.245Z,2.15
2023-03-04T01:04:29.874Z,2.72
2023-03-04T01:07:31.341Z,2.63
2023-03-04T01:10:33.086Z,2.47
2023-03-04T01:13:35.036Z,2.20
2023-03-04T01:16:36.765Z,2.35
2023-03-04T01:19:38.254Z,1.95
2023-03-04T01:22:39.749Z,2.30
2023-03-04T01:25:42.288Z,2.47
2023-03-04T01:28:43.803Z,2.40
2023-03-04T01:31:45.274Z,2.20
2023-03-04T01:34:47.446Z,2.17
2023-03-04T01:37:48.971Z,1.90
2023-03-04T01:40:51.663Z,2.05
2023-03-04T01:43:56.916Z,2.10
2023-03-04T01:46:58.732Z,2.10
2023-03-04T01:50:02.068Z,2.35
2023-03-04T01:53:04.502Z,2.13
2023-03-04T01:56:35.222Z,2.05
2023-03-04T01:59:37.182Z,2.00
